createdAt,value
2022-10-07T00:01:17.030Z,3.50
2022-10-07T00:03:45.348Z,2.43
2022-10-07T00:06:16.555Z,4.00
2022-10-07T00:08:47.585Z,3.70
2022-10-07T00:11:18.535Z,9.17
2022-10-07T00:13:48.888Z,5.20
2022-10-07T00:16:21.241Z,3.27
2022-10-07T00:18:50.221Z,6.60
2022-10-07T00:21:20.918Z,3.83
2022-10-07T00:23:49.785Z,5.20
2022-10-07T00:26:20.783Z,3.47
2022-10-07T00:28:50.671Z,4.17
2022-10-07T00:31:24.081Z,5.53
2022-10-07T00:33:53.432Z,5.33
2022-10-07T00:36:28.904Z,4.10
2022-10-07T00:38:59.266Z,3.60
2022-10-07T00:41:30.848Z,4.23
2022-10-07T00:43:59.955Z,4.70
2022-10-07T00:46:34.634Z,2.67
2022-10-07T00:49:09.129Z,3.10
2022-10-07T00:51:37.997Z,4.17
2022-10-07T00:54:12.414Z,4.47
2022-10-07T00:56:42.420Z,4.20
2022-10-07T00:59:11.854Z,3.77
2022-10-07T01:01:42.046Z,2.40
2022-10-07T01:04:12.112Z,6.20
2022-10-07T01:06:41.358Z,2.13
2022-10-07T01:09:11.638Z,4.03
2022-10-07T01:11:51.786Z,2.17
2022-10-07T01:14:32.079Z,4.47
2022-10-07T01:17:11.169Z,3.30
2022-10-07T01:20:13.275Z,5.27
2022-10-07T01:22:56.499Z,2.10
2022-10-07T01:25:39.008Z,3.23
2022-10-07T01:28:14.152Z,3.57
2022-10-07T01:30:50.935Z,2.13
2022-10-07T01:33:27.815Z,6.20
2022-10-07T01:36:01.022Z,3.27
2022-10-07T01:38:33.689Z,5.27
2022-10-07T01:41:10.234Z,3.33
2022-10-07T01:43:41.319Z,4.03
2022-10-07T01:46:15.264Z,4.40
2022-10-07T01:48:43.435Z,2.10
2022-10-07T01:51:13.252Z,5.63
2022-10-07T01:53:58.567Z,4.07
2022-10-07T01:56:54.979Z,7.77
2022-10-07T01:59:50.538Z,4.97
2022-10-07T02:02:32.395Z,3.27
2022-10-07T02:05:16.078Z,6.70
2022-10-07T02:08:02.771Z,2.43
2022-10-07T02:10:38.485Z,3.93
2022-10-07T02:13:14.880Z,3.03
2022-10-07T02:15:53.886Z,2.10
2022-10-07T02:18:22.478Z,2.43
2022-10-07T02:20:53.270Z,3.33
2022-10-07T02:23:27.645Z,4.33
2022-10-07T02:25:58.214Z,6.13
2022-10-07T02:28:27.836Z,3.70
2022-10-07T02:31:02.306Z,5.70
2022-10-07T02:33:33.241Z,5.53
2022-10-07T02:36:10.651Z,2.93
2022-10-07T02:38:39.703Z,3.53
2022-10-07T02:41:31.167Z,8.03
2022-10-07T02:44:19.245Z,7.30
2022-10-07T02:46:54.998Z,4.43
2022-10-07T02:49:26.227Z,6.77
2022-10-07T02:52:00.498Z,3.83
2022-10-07T02:54:35.672Z,3.00
2022-10-07T02:57:06.203Z,5.13
2022-10-07T02:59:37.572Z,4.87
2022-10-07T03:02:12.076Z,5.83
2022-10-07T03:04:40.324Z,8.70
2022-10-07T03:07:08.406Z,2.90
2022-10-07T03:09:37.594Z,6.60
2022-10-07T03:12:07.755Z,3.17
2022-10-07T03:14:36.634Z,9.63
2022-10-07T03:17:06.339Z,3.30
2022-10-07T03:19:34.346Z,4.07
2022-10-07T03:22:02.410Z,2.83
2022-10-07T03:24:32.346Z,6.37
2022-10-07T03:27:00.498Z,6.70
2022-10-07T03:29:30.639Z,4.30
2022-10-07T03:31:59.207Z,5.63
2022-10-07T03:34:28.931Z,3.83
2022-10-07T03:36:57.335Z,5.97
2022-10-07T03:39:25.461Z,4.80
2022-10-07T03:41:53.715Z,5.03
2022-10-07T03:44:22.473Z,6.70
2022-10-07T03:46:52.827Z,2.50
2022-10-07T03:49:23.931Z,3.23
2022-10-07T03:51:53.430Z,5.10
2022-10-07T03:54:21.546Z,5.10
2022-10-07T03:56:49.929Z,3.40
2022-10-07T03:59:18.036Z,4.57
2022-10-07T04:01:47.021Z,1.77
2022-10-07T04:04:15.621Z,7.87
2022-10-07T04:06:45.454Z,4.20
2022-10-07T04:09:16.817Z,5.30
2022-10-07T04:11:45.052Z,5.67
2022-10-07T04:14:13.406Z,2.70
2022-10-07T04:16:42.563Z,5.83
2022-10-07T04:19:13.650Z,9.93
2022-10-07T04:21:42.932Z,5.63
2022-10-07T04:24:11.062Z,4.53
2022-10-07T04:26:40.539Z,5.90
2022-10-07T04:29:09.920Z,4.00
2022-10-07T04:31:38.314Z,3.13
2022-10-07T04:34:07.506Z,2.87
2022-10-07T04:36:39.885Z,5.07
2022-10-07T04:39:10.573Z,5.00
2022-10-07T04:41:44.781Z,5.10
2022-10-07T04:44:18.034Z,6.33
2022-10-07T04:46:56.519Z,4.67
2022-10-07T04:49:26.750Z,5.83
2022-10-07T04:51:56.822Z,4.33
2022-10-07T04:54:28.549Z,7.70
2022-10-07T04:56:58.846Z,3.73
2022-10-07T04:59:30.074Z,5.63
2022-10-07T05:01:59.145Z,7.20
2022-10-07T05:04:28.977Z,5.07
2022-10-07T05:06:58.778Z,5.80
2022-10-07T05:09:27.247Z,5.67
2022-10-07T05:11:56.192Z,6.27
2022-10-07T05:14:26.099Z,3.70
2022-10-07T05:16:56.297Z,11.57
2022-10-07T05:19:28.267Z,7.80
2022-10-07T05:21:56.827Z,6.13
2022-10-07T05:24:26.938Z,7.80
2022-10-07T05:26:55.019Z,5.73
2022-10-07T05:29:24.954Z,7.03
2022-10-07T05:31:54.977Z,3.67
2022-10-07T05:34:26.343Z,5.00
2022-10-07T05:36:55.982Z,7.93
2022-10-07T05:39:24.622Z,5.90
2022-10-07T05:41:57.634Z,5.80
2022-10-07T05:44:32.363Z,7.17
2022-10-07T05:47:03.063Z,3.50
2022-10-07T05:49:31.573Z,7.40
2022-10-07T05:52:00.212Z,3.27
2022-10-07T05:54:28.363Z,7.57
2022-10-07T05:56:59.037Z,5.13
2022-10-07T05:59:27.321Z,5.20
2022-10-07T06:01:57.475Z,8.40
2022-10-07T06:04:26.772Z,5.67
2022-10-07T06:06:55.107Z,4.40
2022-10-07T06:09:41.114Z,5.03
2022-10-07T06:12:32.265Z,3.37
2022-10-07T06:15:03.570Z,5.90
2022-10-07T06:17:33.029Z,4.80
2022-10-07T06:20:03.722Z,6.43
2022-10-07T06:22:31.776Z,3.20
2022-10-07T06:25:02.395Z,4.00
2022-10-07T06:27:32.241Z,4.10
2022-10-07T06:30:00.601Z,4.77
2022-10-07T06:32:32.725Z,5.50
2022-10-07T06:35:01.672Z,5.40
2022-10-07T06:37:32.651Z,4.43
2022-10-07T06:40:01.341Z,3.33
2022-10-07T06:42:33.149Z,5.93
2022-10-07T06:45:24.383Z,3.03
2022-10-07T06:47:55.802Z,6.87
2022-10-07T06:50:25.118Z,6.57
2022-10-07T06:52:53.910Z,4.30
2022-10-07T06:55:22.298Z,6.20
2022-10-07T06:57:54.415Z,7.33
2022-10-07T07:00:22.670Z,4.37
2022-10-07T07:02:51.310Z,4.20
2022-10-07T07:05:20.830Z,4.47
2022-10-07T07:07:49.633Z,9.57
2022-10-07T07:10:18.340Z,4.53
2022-10-07T07:12:50.388Z,6.70
2022-10-07T07:15:19.218Z,6.73
2022-10-07T07:17:47.773Z,4.80
2022-10-07T07:20:16.947Z,3.80
2022-10-07T07:22:46.397Z,4.50
2022-10-07T07:25:14.823Z,6.43
2022-10-07T07:27:43.207Z,7.43
2022-10-07T07:30:14.342Z,3.17
2022-10-07T07:32:45.989Z,5.87
2022-10-07T07:35:14.937Z,7.80
2022-10-07T07:37:43.670Z,7.23
2022-10-07T07:40:13.454Z,10.10
2022-10-07T07:42:42.054Z,7.73
2022-10-07T07:45:10.853Z,5.97
2022-10-07T07:47:39.475Z,5.90
2022-10-07T07:50:09.006Z,6.93
2022-10-07T07:52:37.281Z,7.37
2022-10-07T07:55:08.273Z,6.27
2022-10-07T07:57:38.808Z,5.27
2022-10-07T08:00:12.712Z,6.37
2022-10-07T08:02:53.761Z,5.70
2022-10-07T08:05:24.097Z,6.13
2022-10-07T08:07:55.717Z,6.63
2022-10-07T08:10:25.829Z,7.37
2022-10-07T08:12:55.886Z,8.50
2022-10-07T08:15:24.953Z,6.67
2022-10-07T08:17:53.833Z,5.13
2022-10-07T08:20:21.903Z,7.83
2022-10-07T08:22:54.506Z,5.23
2022-10-07T08:25:28.102Z,5.97
2022-10-07T08:27:57.815Z,5.57
2022-10-07T08:30:26.329Z,8.60
2022-10-07T08:32:59.010Z,7.23
2022-10-07T08:35:29.126Z,4.67
2022-10-07T08:37:57.141Z,6.97
2022-10-07T08:40:25.216Z,8.13
2022-10-07T08:42:54.559Z,7.30
2022-10-07T08:45:31.808Z,5.77
2022-10-07T08:48:04.076Z,12.20
2022-10-07T08:50:42.728Z,4.57
2022-10-07T08:53:20.466Z,7.47
2022-10-07T08:55:54.746Z,6.57
2022-10-07T08:58:44.090Z,8.50
2022-10-07T09:01:35.341Z,6.90
2022-10-07T09:04:19.908Z,7.37
2022-10-07T09:06:55.862Z,5.77
2022-10-07T09:09:30.192Z,9.03
2022-10-07T09:12:00.515Z,9.10
2022-10-07T09:14:35.218Z,10.10
2022-10-07T09:17:13.031Z,8.87
2022-10-07T09:19:47.829Z,8.27
2022-10-07T09:22:22.877Z,7.43
2022-10-07T09:24:56.515Z,6.67
2022-10-07T09:27:26.607Z,11.10
2022-10-07T09:29:54.630Z,7.60
2022-10-07T09:32:24.058Z,6.10
2022-10-07T09:34:52.227Z,8.50
2022-10-07T09:37:22.338Z,6.60
2022-10-07T09:39:53.202Z,8.50
2022-10-07T09:42:32.160Z,6.50
2022-10-07T09:45:04.437Z,7.03
2022-10-07T09:47:40.455Z,7.27
2022-10-07T09:50:34.061Z,6.07
2022-10-07T09:53:02.932Z,6.10
2022-10-07T09:55:37.751Z,6.33
2022-10-07T09:58:16.803Z,7.30
2022-10-07T10:00:47.307Z,10.43
2022-10-07T10:03:18.307Z,11.93
2022-10-07T10:05:57.439Z,7.50
2022-10-07T10:08:30.401Z,7.23
2022-10-07T10:11:01.935Z,5.90
2022-10-07T10:13:34.190Z,7.43
2022-10-07T10:16:04.235Z,5.87
2022-10-07T10:18:38.573Z,7.97
2022-10-07T10:21:30.107Z,10.50
2022-10-07T10:24:00.650Z,7.67
2022-10-07T10:27:01.579Z,8.87
2022-10-07T10:29:43.055Z,6.53
2022-10-07T10:32:48.690Z,6.30
2022-10-07T10:35:26.694Z,5.93
2022-10-07T10:38:13.909Z,6.47
2022-10-07T10:40:47.987Z,6.13
2022-10-07T10:43:28.574Z,8.33
2022-10-07T10:46:22.482Z,9.57
2022-10-07T10:48:56.476Z,5.30
2022-10-07T10:51:46.094Z,5.60
2022-10-07T10:54:27.500Z,5.63
2022-10-07T10:57:03.178Z,8.13
2022-10-07T10:59:57.948Z,9.00
2022-10-07T11:03:02.085Z,7.67
2022-10-07T11:05:33.444Z,6.77
2022-10-07T11:08:11.289Z,8.17
2022-10-07T11:10:45.785Z,6.00
2022-10-07T11:13:29.725Z,6.87
2022-10-07T11:16:05.861Z,6.70
2022-10-07T11:18:41.898Z,7.97
2022-10-07T11:21:18.162Z,7.77
2022-10-07T11:23:59.984Z,5.93
2022-10-07T11:26:36.032Z,7.63
2022-10-07T11:29:19.392Z,6.13
2022-10-07T11:31:56.764Z,8.67
2022-10-07T11:34:35.875Z,8.90
2022-10-07T11:37:12.801Z,7.07
2022-10-07T11:39:42.467Z,7.70
2022-10-07T11:42:18.227Z,8.83
2022-10-07T11:44:57.063Z,7.37
2022-10-07T11:47:31.647Z,7.77
2022-10-07T11:50:07.801Z,6.10
2022-10-07T11:52:42.694Z,8.00
2022-10-07T11:55:23.016Z,8.90
2022-10-07T11:57:55.876Z,7.83
2022-10-07T12:00:28.442Z,8.33
2022-10-07T12:02:57.376Z,5.80
2022-10-07T12:06:07.460Z,6.70
2022-10-07T12:08:38.688Z,5.80
2022-10-07T12:11:50.767Z,6.47
2022-10-07T12:14:58.850Z,5.13
2022-10-07T12:17:31.562Z,5.00
2022-10-07T12:20:45.273Z,8.23
2022-10-07T12:24:10.747Z,8.40
2022-10-07T12:26:47.323Z,6.63
2022-10-07T12:29:33.517Z,8.83
2022-10-07T12:32:02.014Z,6.83
2022-10-07T12:34:43.381Z,6.60
2022-10-07T12:37:50.061Z,8.30
2022-10-07T12:40:28.530Z,8.87
2022-10-07T12:43:10.232Z,5.63
2022-10-07T12:45:43.517Z,7.30
2022-10-07T12:48:17.578Z,7.90
2022-10-07T12:50:48.448Z,4.97
2022-10-07T12:53:17.767Z,6.73
2022-10-07T12:55:51.891Z,8.60
2022-10-07T12:59:07.732Z,5.80
2022-10-07T13:02:04.541Z,5.13
2022-10-07T13:05:05.601Z,6.53
2022-10-07T13:08:14.475Z,4.93
2022-10-07T13:11:09.152Z,5.13
2022-10-07T13:13:45.073Z,7.03
2022-10-07T13:16:21.457Z,6.20
2022-10-07T13:18:59.626Z,6.90
2022-10-07T13:21:33.662Z,4.63
2022-10-07T13:24:01.935Z,5.23
2022-10-07T13:26:30.308Z,6.40
2022-10-07T13:29:01.639Z,6.80
2022-10-07T13:31:32.729Z,5.60
2022-10-07T13:34:18.478Z,5.80
2022-10-07T13:36:46.766Z,6.17
2022-10-07T13:39:22.093Z,5.90
2022-10-07T13:41:54.517Z,7.60
2022-10-07T13:44:26.768Z,5.40
2022-10-07T13:46:59.937Z,7.83
2022-10-07T13:49:36.126Z,5.43
2022-10-07T13:52:07.724Z,5.57
2022-10-07T13:54:37.229Z,5.23
2022-10-07T13:57:11.639Z,7.73
2022-10-07T13:59:40.868Z,5.57
2022-10-07T14:02:15.409Z,6.40
2022-10-07T14:04:59.456Z,6.23
2022-10-07T14:07:29.454Z,5.50
2022-10-07T14:10:11.455Z,8.30
2022-10-07T14:12:43.975Z,7.37
2022-10-07T14:15:16.973Z,8.97
2022-10-07T14:17:48.066Z,7.37
2022-10-07T14:20:26.522Z,6.00
2022-10-07T14:22:58.499Z,6.90
2022-10-07T14:25:29.045Z,7.73
2022-10-07T14:28:17.632Z,5.20
2022-10-07T14:31:25.612Z,6.67
2022-10-07T14:34:20.006Z,6.20
2022-10-07T14:37:08.080Z,6.17
2022-10-07T14:39:38.760Z,6.47
2022-10-07T14:42:12.080Z,7.37
2022-10-07T14:44:44.302Z,6.70
2022-10-07T14:47:15.834Z,7.37
2022-10-07T14:49:45.298Z,6.57
2022-10-07T14:52:20.587Z,6.07
2022-10-07T14:54:50.968Z,6.47
2022-10-07T14:57:19.495Z,5.47
2022-10-07T14:59:49.950Z,6.23
2022-10-07T15:02:18.971Z,7.33
2022-10-07T15:04:49.284Z,8.13
2022-10-07T15:07:18.356Z,7.33
2022-10-07T15:09:47.153Z,7.53
2022-10-07T15:12:17.019Z,7.63
2022-10-07T15:14:45.215Z,7.07
2022-10-07T15:17:14.272Z,7.43
2022-10-07T15:19:42.533Z,7.77
2022-10-07T15:22:11.933Z,5.43
2022-10-07T15:24:40.963Z,6.87
2022-10-07T15:27:09.879Z,5.80
2022-10-07T15:29:38.014Z,6.23
2022-10-07T15:32:07.133Z,6.90
2022-10-07T15:34:35.199Z,10.00
2022-10-07T15:37:03.370Z,5.40
2022-10-07T15:39:37.435Z,7.43
2022-10-07T15:42:08.883Z,6.53
2022-10-07T15:44:36.913Z,7.30
2022-10-07T15:47:04.991Z,5.13
2022-10-07T15:49:33.181Z,5.10
2022-10-07T15:52:01.346Z,6.90
2022-10-07T15:54:30.655Z,7.53
2022-10-07T15:57:00.154Z,9.67
2022-10-07T15:59:29.467Z,7.03
2022-10-07T16:01:57.917Z,10.50
2022-10-07T16:04:26.133Z,8.70
2022-10-07T16:06:55.019Z,6.03
2022-10-07T16:09:25.109Z,10.00
2022-10-07T16:11:53.930Z,7.97
2022-10-07T16:14:23.301Z,7.17
2022-10-07T16:16:51.352Z,7.10
2022-10-07T16:19:19.607Z,6.93
2022-10-07T16:21:47.676Z,5.53
2022-10-07T16:24:19.496Z,6.90
2022-10-07T16:26:50.555Z,6.97
2022-10-07T16:29:38.388Z,7.90
2022-10-07T16:32:10.849Z,9.53
2022-10-07T16:34:43.499Z,6.10
2022-10-07T16:37:12.746Z,7.07
2022-10-07T16:39:40.799Z,5.93
2022-10-07T16:42:09.454Z,6.87
2022-10-07T16:44:37.648Z,7.60
2022-10-07T16:47:07.475Z,7.40
2022-10-07T16:49:36.462Z,7.13
2022-10-07T16:52:06.338Z,7.33
2022-10-07T16:54:35.467Z,7.97
2022-10-07T16:57:03.662Z,7.63
2022-10-07T16:59:31.809Z,12.43
2022-10-07T17:02:02.507Z,8.97
2022-10-07T17:04:32.156Z,9.83
2022-10-07T17:07:00.235Z,8.93
2022-10-07T17:09:29.382Z,13.57
2022-10-07T17:11:58.245Z,7.70
2022-10-07T17:14:26.962Z,8.60
2022-10-07T17:16:58.304Z,10.07
2022-10-07T17:19:29.044Z,8.10
2022-10-07T17:21:59.583Z,8.87
2022-10-07T17:24:28.070Z,9.10
2022-10-07T17:29:26.496Z,8.40
2022-10-07T17:31:56.397Z,9.17
2022-10-07T17:34:24.624Z,7.57
2022-10-07T17:36:52.932Z,11.67
2022-10-07T17:39:22.568Z,11.43
2022-10-07T17:41:50.641Z,12.27
2022-10-07T17:44:19.698Z,11.17
2022-10-07T17:46:48.863Z,14.07
2022-10-07T17:49:17.013Z,13.63
2022-10-07T17:51:45.559Z,10.17
2022-10-07T17:54:14.864Z,10.43
2022-10-07T17:56:47.586Z,10.20
2022-10-07T17:59:16.678Z,12.87
2022-10-07T18:01:45.072Z,12.80
2022-10-07T18:04:19.921Z,12.50
2022-10-07T18:06:50.443Z,10.30
2022-10-07T18:09:19.349Z,11.70
2022-10-07T18:12:06.313Z,10.10
2022-10-07T18:14:53.999Z,15.47
2022-10-07T18:17:22.924Z,18.57
2022-10-07T18:19:50.968Z,18.97
2022-10-07T18:22:19.243Z,17.47
2022-10-07T18:24:47.432Z,17.73
2022-10-07T18:27:16.998Z,16.63
2022-10-07T18:29:45.771Z,13.13
2022-10-07T18:32:13.890Z,12.07
2022-10-07T18:34:42.033Z,13.40
2022-10-07T18:37:11.178Z,11.33
2022-10-07T18:39:40.987Z,9.63
2022-10-07T18:42:10.326Z,10.27
2022-10-07T18:44:39.738Z,9.03
2022-10-07T18:47:08.281Z,10.57
2022-10-07T18:49:36.421Z,6.53
2022-10-07T18:52:07.146Z,10.87
2022-10-07T18:54:35.776Z,8.00
2022-10-07T18:57:05.867Z,11.73
2022-10-07T18:59:33.923Z,10.97
2022-10-07T19:02:03.633Z,13.13
2022-10-07T19:04:31.763Z,16.97
2022-10-07T19:06:59.995Z,17.93
2022-10-07T19:09:28.446Z,12.50
2022-10-07T19:11:56.478Z,11.47
2022-10-07T19:14:26.191Z,12.40
2022-10-07T19:16:54.698Z,11.60
2022-10-07T19:19:25.654Z,15.80
2022-10-07T19:21:55.913Z,14.67
2022-10-07T19:24:45.533Z,24.07
2022-10-07T19:27:14.191Z,29.90
2022-10-07T19:29:42.298Z,27.63
2022-10-07T19:32:10.402Z,19.53
2022-10-07T19:34:39.880Z,16.97
2022-10-07T19:37:08.227Z,15.40
2022-10-07T19:39:36.830Z,10.67
2022-10-07T19:42:05.487Z,9.60
2022-10-07T19:44:33.608Z,9.93
2022-10-07T19:47:03.193Z,14.23
2022-10-07T19:49:31.323Z,11.17
2022-10-07T19:52:00.896Z,11.87
2022-10-07T19:54:30.384Z,13.57
2022-10-07T19:56:58.425Z,14.43
2022-10-07T19:59:26.685Z,7.87
2022-10-07T20:01:58.837Z,7.70
2022-10-07T20:04:29.194Z,14.83
2022-10-07T20:06:59.071Z,16.93
2022-10-07T20:09:28.503Z,15.00
2022-10-07T20:11:56.710Z,11.97
2022-10-07T20:14:24.775Z,11.20
2022-10-07T20:16:54.991Z,12.20
2022-10-07T20:19:23.277Z,12.73
2022-10-07T20:21:51.438Z,9.77
2022-10-07T20:24:19.563Z,8.03
2022-10-07T20:26:48.981Z,9.63
2022-10-07T20:29:20.381Z,10.20
2022-10-07T20:31:51.575Z,10.03
2022-10-07T20:34:20.129Z,9.17
2022-10-07T20:36:50.333Z,11.07
2022-10-07T20:39:38.442Z,8.70
2022-10-07T20:42:24.391Z,9.50
2022-10-07T20:44:54.269Z,10.97
2022-10-07T20:47:24.634Z,9.00
2022-10-07T20:49:52.969Z,8.63
2022-10-07T20:52:23.297Z,11.43
2022-10-07T20:54:53.117Z,10.33
2022-10-07T20:57:25.315Z,11.40
2022-10-07T20:59:53.438Z,9.63
2022-10-07T21:02:24.529Z,9.23
2022-10-07T21:04:53.203Z,7.87
2022-10-07T21:07:21.474Z,8.93
2022-10-07T21:09:49.587Z,7.20
2022-10-07T21:12:19.092Z,9.77
2022-10-07T21:14:49.778Z,11.43
2022-10-07T21:17:17.902Z,9.57
2022-10-07T21:19:45.956Z,10.73
2022-10-07T21:22:14.125Z,11.30
2022-10-07T21:24:42.163Z,9.93
2022-10-07T21:27:10.676Z,10.70
2022-10-07T21:29:41.064Z,11.07
2022-10-07T21:32:11.817Z,9.30
2022-10-07T21:34:40.154Z,12.67
2022-10-07T21:37:08.438Z,9.30
2022-10-07T21:39:38.055Z,8.63
2022-10-07T21:42:06.338Z,10.30
2022-10-07T21:44:35.482Z,7.90
2022-10-07T21:47:05.044Z,9.77
2022-10-07T21:49:34.568Z,9.90
2022-10-07T21:52:02.569Z,9.13
2022-10-07T21:54:30.979Z,9.77
2022-10-07T21:56:59.016Z,10.40
2022-10-07T21:59:27.093Z,9.57
2022-10-07T22:01:55.279Z,9.23
2022-10-07T22:04:24.353Z,9.13
2022-10-07T22:07:11.391Z,10.83
2022-10-07T22:09:39.479Z,9.20
2022-10-07T22:12:07.932Z,10.90
2022-10-07T22:14:35.993Z,9.13
2022-10-07T22:17:04.334Z,12.17
2022-10-07T22:19:32.405Z,9.90
2022-10-07T22:22:01.962Z,10.00
2022-10-07T22:24:30.906Z,8.53
2022-10-07T22:27:00.136Z,9.77
2022-10-07T22:29:29.615Z,10.70
2022-10-07T22:31:57.769Z,9.97
2022-10-07T22:34:43.841Z,11.73
2022-10-07T22:37:13.214Z,9.77
2022-10-07T22:39:41.403Z,9.57
2022-10-07T22:42:09.522Z,8.10
2022-10-07T22:44:37.667Z,11.67
2022-10-07T22:47:05.802Z,14.50
2022-10-07T22:49:33.838Z,9.27
2022-10-07T22:52:01.908Z,8.90
2022-10-07T22:54:31.397Z,14.70
2022-10-07T22:56:59.824Z,9.90
2022-10-07T22:59:27.859Z,9.13
2022-10-07T23:01:55.972Z,10.20
2022-10-07T23:04:24.016Z,10.93
2022-10-07T23:06:52.885Z,10.37
2022-10-07T23:09:21.665Z,10.53
2022-10-07T23:11:51.227Z,7.83
2022-10-07T23:14:19.277Z,9.13
2022-10-07T23:16:47.357Z,10.60
2022-10-07T23:19:15.412Z,13.00
2022-10-07T23:21:44.598Z,11.20
2022-10-07T23:24:13.825Z,10.73
2022-10-07T23:26:43.215Z,9.67
2022-10-07T23:29:13.532Z,8.87
2022-10-07T23:31:42.047Z,8.83
2022-10-07T23:34:12.057Z,9.03
2022-10-07T23:36:40.761Z,9.77
2022-10-07T23:39:08.837Z,9.70
2022-10-07T23:41:36.939Z,9.53
2022-10-07T23:44:05.379Z,8.73
2022-10-07T23:46:36.192Z,13.43
2022-10-07T23:49:05.673Z,8.87
2022-10-07T23:51:35.078Z,9.87
2022-10-07T23:54:05.068Z,8.03
2022-10-07T23:56:34.015Z,9.17
2022-10-07T23:59:02.583Z,17.13
